Lake Holcombe, Wisconsin
Current Conditions -  °F | °C
As of 10:15 AM on Saturday 25 Oct 2014 (Local Time) from KY23 Reporting Station
Clear Clear  
Wind Chill: 53°   Ceiling: Unl
Heat Index: 53°   Visibility: 10mi
Dew Point: 36°   Wind: 10mph
Humidity: 52%   Direction: 300°WNW
Pressure: 29.97"   Gusts: 17mph
Location:  45.2521°N, 91.2394°W
Report Text: KY23 251515Z AUTO 30009G15KT 10SM CLR 12/02 A2997 RMK AO2 T01180021
Loading
Personal Weather Stations






























Interactive Weather Map
Tropical Storm Tracking
New forecast layout! Learn more

10-Day Weather Forecast

Advertisements
Track Severe Weather on mobile